Lowgap, North Carolina
Current Conditions -  °F | °C
As of 3:15 PM on Saturday 25 Oct 2014 (Local Time) from KHLX Reporting Station
Clear Clear  
Wind Chill: 63°   Ceiling: Unl
Heat Index: 63°   Visibility: 10mi
Dew Point: 41°   Wind: 9mph
Humidity: 45%   Direction: 250°WSW
Pressure: 29.99"   Gusts: NA
Location:  36.53°N, 80.87°W
Report Text: KHLX 251915Z AUTO 25008KT 10SM CLR 17/05 A2999 RMK AO2 T01720052
Loading
Personal Weather Stations






























Interactive Weather Map
Tropical Storm Tracking
New forecast layout! Learn more

10-Day Weather Forecast

Advertisements
Track Severe Weather on mobile